Time;durP1;ratioP1;P1;durP2;ratioP2;P2;SDS_P1;SDS_P2;PMS_P1;PMS_P2;Temp;Humidity;BMP_temperature;BMP_pressure;BME280_temperature;BME280_humidity;BME280_pressure;Samples;Min_cycle;Max_cycle;Signal;HPM_P1;HPM_P2
2021/12/23 00:02:03;;;;;;;0.00;0.00;;;-0.50;99.90;;;;;;5072636;28;20048;-83
2021/12/23 00:04:29;;;;;;;0.38;0.38;;;-0.70;99.90;;;;;;5072652;28;20059;-83
2021/12/23 00:06:54;;;;;;;0.00;0.00;;;-0.70;99.90;;;;;;5072347;28;20048;-83
2021/12/23 00:09:22;;;;;;;0.08;0.08;;;-0.70;99.90;;;;;;5055138;28;20479;-83
2021/12/23 00:11:48;;;;;;;0.10;0.10;;;-0.70;99.90;;;;;;5072402;28;20484;-83
2021/12/23 00:14:14;;;;;;;0.10;0.10;;;-0.70;99.90;;;;;;5072355;28;20055;-83
2021/12/23 00:16:46;;;;;;;0.80;0.80;;;-0.70;99.90;;;;;;5055890;28;20103;-83
2021/12/23 00:24:37;;;;;;;0.38;0.38;;;-0.70;99.90;;;;;;5072374;28;20044;-83
2021/12/23 00:27:03;;;;;;;1.33;0.40;;;-0.70;99.90;;;;;;5055404;28;20058;-83
2021/12/23 00:29:29;;;;;;;0.00;0.00;;;-0.70;99.90;;;;;;5071803;28;20039;-83
2021/12/23 00:31:55;;;;;;;0.08;0.08;;;-0.70;99.90;;;;;;5073160;28;20048;-83
2021/12/23 00:34:20;;;;;;;1.67;0.82;;;-0.70;99.90;;;;;;5072223;28;20045;-83
2021/12/23 00:36:46;;;;;;;1.88;0.90;;;-0.70;99.90;;;;;;5072321;28;20086;-83
2021/12/23 00:39:14;;;;;;;0.65;0.40;;;-0.70;99.90;;;;;;5073153;28;20052;-83
2021/12/23 00:41:42;;;;;;;0.25;0.08;;;-0.70;99.90;;;;;;5076262;28;20090;-83
2021/12/23 00:44:08;;;;;;;0.00;0.00;;;-0.60;99.90;;;;;;5075957;28;20049;-83
2021/12/23 00:46:33;;;;;;;0.10;0.10;;;-0.60;99.90;;;;;;5075886;28;20186;-84
2021/12/23 00:48:59;;;;;;;0.00;0.00;;;-0.50;99.90;;;;;;5059230;28;20071;-83
2021/12/23 00:51:25;;;;;;;0.25;0.20;;;-0.60;99.90;;;;;;5076024;28;20051;-83
2021/12/23 00:53:53;;;;;;;0.00;0.00;;;-0.50;99.90;;;;;;5075621;28;20053;-83
2021/12/23 00:56:19;;;;;;;0.00;0.00;;;-0.50;99.90;;;;;;5076045;28;20133;-83
2021/12/23 00:58:44;;;;;;;0.15;0.15;;;-0.50;99.90;;;;;;5076162;28;20091;-83
2021/12/23 01:01:10;;;;;;;0.00;0.00;;;-0.50;99.90;;;;;;5059228;28;20454;-83
2021/12/23 01:03:36;;;;;;;0.32;0.32;;;-0.50;99.90;;;;;;5075895;28;20044;-84
2021/12/23 01:06:03;;;;;;;0.00;0.00;;;-0.50;99.90;;;;;;5059111;28;20476;-83
2021/12/23 01:08:28;;;;;;;0.25;0.25;;;-0.50;99.90;;;;;;5075636;28;20072;-83
2021/12/23 01:10:57;;;;;;;0.08;0.08;;;-0.40;99.90;;;;;;5075602;28;20433;-83
2021/12/23 01:13:28;;;;;;;1.75;1.60;;;-0.40;99.90;;;;;;5058945;28;20048;-83
2021/12/23 01:16:04;;;;;;;14.45;1.08;;;-0.40;99.90;;;;;;5059157;28;20052;-83
2021/12/23 01:18:44;;;;;;;0.50;0.32;;;-0.40;99.90;;;;;;5060138;28;20045;-83
2021/12/23 01:21:17;;;;;;;0.10;0.10;;;0.00;99.90;;;;;;5059732;28;20387;-83
2021/12/23 01:23:56;;;;;;;0.47;0.47;;;-0.30;99.90;;;;;;5059638;28;20040;-83
2021/12/23 01:26:23;;;;;;;0.00;0.00;;;-0.40;99.90;;;;;;5076799;28;20084;-83
2021/12/23 01:28:55;;;;;;;0.90;0.65;;;-0.30;99.90;;;;;;5076356;28;20037;-83
2021/12/23 01:31:23;;;;;;;0.08;0.08;;;-0.30;99.90;;;;;;5059540;28;20049;-83
2021/12/23 01:33:48;;;;;;;0.10;0.10;;;-0.30;99.90;;;;;;5059492;28;20052;-83
2021/12/23 01:36:14;;;;;;;0.57;0.30;;;-0.30;99.90;;;;;;5058703;28;20498;-83
2021/12/23 01:38:40;;;;;;;0.65;0.65;;;-0.30;99.90;;;;;;5075131;28;20052;-83
2021/12/23 01:41:06;;;;;;;0.00;0.00;;;-0.30;99.90;;;;;;5058654;28;20095;-83
2021/12/23 01:43:32;;;;;;;0.00;0.00;;;-0.30;99.90;;;;;;5075851;28;20045;-83
2021/12/23 01:45:58;;;;;;;0.00;0.00;;;-0.30;99.90;;;;;;5059260;28;20044;-83
2021/12/23 01:48:23;;;;;;;1.35;0.88;;;-0.30;99.90;;;;;;5058385;28;20068;-83
2021/12/23 01:50:49;;;;;;;0.77;0.32;;;-0.40;99.90;;;;;;5057248;28;20067;-83
2021/12/23 01:53:15;;;;;;;0.00;0.00;;;-0.30;99.90;;;;;;5058020;28;20064;-83
2021/12/23 01:55:42;;;;;;;0.90;0.52;;;-0.30;99.90;;;;;;5074855;28;20052;-83
2021/12/23 01:58:10;;;;;;;0.05;0.05;;;-0.30;99.90;;;;;;5057996;28;20145;-83
2021/12/23 02:00:37;;;;;;;0.70;0.65;;;-0.40;99.90;;;;;;5058126;28;20049;-83
2021/12/23 02:03:04;;;;;;;9.40;0.55;;;-0.30;99.90;;;;;;5074748;28;20080;-83
2021/12/23 02:05:30;;;;;;;0.65;0.15;;;-0.30;99.90;;;;;;5075073;28;20139;-83
2021/12/23 02:07:57;;;;;;;0.00;0.00;;;-0.30;99.90;;;;;;5075007;28;20075;-82
2021/12/23 02:10:24;;;;;;;0.40;0.40;;;-0.30;99.90;;;;;;5074620;28;20439;-83
2021/12/23 02:12:50;;;;;;;0.00;0.00;;;-0.20;99.90;;;;;;5075321;28;20048;-83
2021/12/23 02:15:17;;;;;;;0.10;0.10;;;-0.30;99.90;;;;;;5074590;28;20048;-83
2021/12/23 02:17:44;;;;;;;0.10;0.10;;;-0.30;99.90;;;;;;5058133;28;20048;-83
2021/12/23 02:20:13;;;;;;;0.00;0.00;;;-0.30;99.90;;;;;;5074903;28;20075;-83
2021/12/23 02:22:40;;;;;;;0.25;0.25;;;-0.30;99.90;;;;;;5058358;28;20056;-83
2021/12/23 02:25:08;;;;;;;0.45;0.35;;;-0.20;99.90;;;;;;5075272;28;20438;-83
2021/12/23 02:27:34;;;;;;;0.30;0.30;;;-0.30;99.90;;;;;;5075347;28;20484;-83
2021/12/23 02:30:03;;;;;;;0.15;0.15;;;-0.40;99.90;;;;;;5074868;28;20041;-83
2021/12/23 02:32:29;;;;;;;0.45;0.45;;;-0.30;99.90;;;;;;5074384;28;20111;-83
2021/12/23 02:34:54;;;;;;;0.00;0.00;;;-0.30;99.90;;;;;;5074940;28;20049;-82
2021/12/23 02:37:20;;;;;;;0.52;0.52;;;-0.30;99.90;;;;;;5074468;28;20048;-83
2021/12/23 02:39:46;;;;;;;0.20;0.20;;;-0.30;99.90;;;;;;5074247;28;20072;-83
2021/12/23 02:42:12;;;;;;;1.30;0.45;;;-0.20;99.90;;;;;;5074665;28;20044;-83
2021/12/23 02:44:38;;;;;;;1.65;0.40;;;-0.20;99.90;;;;;;5074617;28;20098;-83
2021/12/23 02:47:04;;;;;;;0.20;0.20;;;-0.20;99.90;;;;;;5057238;28;20480;-83
2021/12/23 02:49:29;;;;;;;1.20;0.75;;;-0.20;99.90;;;;;;5073517;28;20090;-83
2021/12/23 02:51:55;;;;;;;3.50;1.08;;;-0.30;99.90;;;;;;5058024;28;20067;-83
2021/12/23 02:54:20;;;;;;;0.05;0.05;;;-0.30;99.90;;;;;;5073397;28;20053;-83
2021/12/23 02:56:46;;;;;;;0.22;0.22;;;-0.30;99.90;;;;;;5073663;28;20056;-84
2021/12/23 02:59:12;;;;;;;0.90;0.70;;;-0.30;99.90;;;;;;5057555;28;20396;-83
2021/12/23 03:01:38;;;;;;;1.00;0.90;;;-0.30;99.90;;;;;;5057484;28;20061;-84
2021/12/23 03:04:04;;;;;;;0.00;0.00;;;-0.30;99.90;;;;;;5074480;28;20032;-83
2021/12/23 03:06:30;;;;;;;0.13;0.10;;;-0.30;99.90;;;;;;5073885;28;20051;-84
2021/12/23 03:08:59;;;;;;;0.00;0.00;;;-0.20;99.90;;;;;;5056348;28;20057;-84
2021/12/23 03:11:27;;;;;;;0.05;0.05;;;-0.20;99.90;;;;;;5073030;28;20500;-83
2021/12/23 03:13:53;;;;;;;0.17;0.17;;;-0.20;99.90;;;;;;5073582;28;20135;-83
2021/12/23 03:16:21;;;;;;;0.00;0.00;;;-0.20;99.90;;;;;;5074215;28;20051;-83
2021/12/23 03:18:48;;;;;;;1.27;0.57;;;-0.20;99.90;;;;;;5073701;28;20052;-83
2021/12/23 03:21:13;;;;;;;0.20;0.20;;;-0.60;99.90;;;;;;5057112;28;20428;-84
2021/12/23 03:23:39;;;;;;;0.85;0.85;;;-0.20;99.90;;;;;;5056480;28;20082;-83
2021/12/23 03:26:05;;;;;;;0.70;0.70;;;-0.20;99.90;;;;;;5072950;28;20446;-83
2021/12/23 03:28:32;;;;;;;0.00;0.00;;;-0.30;99.90;;;;;;5056661;28;20040;-83
2021/12/23 03:30:58;;;;;;;0.68;0.30;;;-0.20;99.90;;;;;;5073099;28;20048;-83
2021/12/23 03:33:24;;;;;;;1.55;0.35;;;-0.30;99.90;;;;;;5073065;28;20135;-83
2021/12/23 03:35:50;;;;;;;0.10;0.10;;;-0.30;99.90;;;;;;5072985;28;20110;-84
2021/12/23 03:38:16;;;;;;;0.13;0.13;;;-0.30;99.90;;;;;;5056874;28;20392;-83
2021/12/23 03:40:43;;;;;;;0.85;0.05;;;-0.30;99.90;;;;;;5072965;28;20045;-83
2021/12/23 03:43:11;;;;;;;4.85;1.00;;;-0.30;99.90;;;;;;5073630;28;20044;-83
2021/12/23 03:45:37;;;;;;;0.15;0.15;;;-0.20;99.90;;;;;;5073228;28;20527;-83
2021/12/23 03:48:04;;;;;;;0.03;0.03;;;-0.20;99.90;;;;;;5073408;28;20045;-83
2021/12/23 03:50:29;;;;;;;0.20;0.20;;;-0.20;99.90;;;;;;5056330;28;20061;-83
2021/12/23 03:52:55;;;;;;;0.17;0.17;;;-0.20;99.90;;;;;;5056273;28;20109;-83
2021/12/23 03:55:21;;;;;;;5.57;0.45;;;-0.20;99.90;;;;;;5056515;28;20055;-83
2021/12/23 03:57:47;;;;;;;0.00;0.00;;;-0.20;99.90;;;;;;5055980;28;20049;-83
2021/12/23 04:00:16;;;;;;;1.35;1.25;;;-0.20;99.90;;;;;;5055825;28;20045;-83
2021/12/23 04:02:42;;;;;;;0.40;0.40;;;-0.20;99.90;;;;;;5072623;28;20068;-83
2021/12/23 04:05:09;;;;;;;0.88;0.88;;;-0.20;99.90;;;;;;5055675;28;20056;-83
2021/12/23 04:07:36;;;;;;;0.65;0.47;;;-0.20;99.90;;;;;;5056015;28;20052;-83
2021/12/23 04:10:03;;;;;;;0.10;0.10;;;-0.20;99.90;;;;;;5055507;28;20087;-83
2021/12/23 04:12:29;;;;;;;0.00;0.00;;;-0.10;99.90;;;;;;5072297;28;20480;-83
2021/12/23 04:14:55;;;;;;;0.10;0.10;;;-0.10;99.90;;;;;;5055639;28;20052;-83
2021/12/23 04:17:20;;;;;;;0.35;0.35;;;-0.10;99.90;;;;;;5072654;28;20033;-83
2021/12/23 04:19:47;;;;;;;0.05;0.05;;;-0.10;99.90;;;;;;5072782;28;20048;-83
2021/12/23 04:22:13;;;;;;;0.98;0.88;;;0.10;99.90;;;;;;5055954;28;20458;-83
2021/12/23 04:24:39;;;;;;;0.95;0.55;;;-0.10;99.90;;;;;;5072650;28;20075;-84
2021/12/23 04:27:05;;;;;;;0.30;0.30;;;-0.10;99.90;;;;;;5056823;28;20178;-83
2021/12/23 04:29:34;;;;;;;0.55;0.55;;;-0.10;99.90;;;;;;5072121;28;20045;-83
2021/12/23 04:32:01;;;;;;;0.00;0.00;;;0.00;99.90;;;;;;5072461;28;20091;-83
2021/12/23 04:34:27;;;;;;;0.08;0.00;;;-0.10;99.90;;;;;;5055716;28;20435;-84
2021/12/23 04:36:53;;;;;;;0.50;0.30;;;0.20;99.90;;;;;;5071880;28;20078;-84
2021/12/23 04:39:19;;;;;;;0.47;0.47;;;0.00;99.90;;;;;;5072163;28;20076;-84
2021/12/23 04:41:45;;;;;;;0.30;0.30;;;0.10;99.90;;;;;;5055701;28;20044;-84
2021/12/23 04:44:11;;;;;;;0.00;0.00;;;0.00;99.90;;;;;;5055012;28;20039;-83
2021/12/23 04:46:37;;;;;;;1.73;1.45;;;0.00;99.90;;;;;;5072209;28;20419;-84
2021/12/23 04:49:03;;;;;;;0.10;0.10;;;0.20;99.90;;;;;;5055310;28;20396;-84
2021/12/23 04:51:28;;;;;;;0.40;0.40;;;0.10;99.90;;;;;;5072128;28;20037;-83
2021/12/23 04:53:54;;;;;;;0.00;0.00;;;0.00;99.90;;;;;;5055031;28;20063;-84
2021/12/23 04:56:20;;;;;;;0.03;0.03;;;0.00;99.90;;;;;;5072986;28;20139;-84
2021/12/23 04:58:46;;;;;;;0.10;0.10;;;0.00;99.90;;;;;;5072240;28;20047;-83
2021/12/23 05:01:21;;;;;;;0.35;0.28;;;0.10;99.90;;;;;;5072434;28;20040;-83
2021/12/23 05:03:48;;;;;;;0.68;0.47;;;0.10;99.90;;;;;;5055737;28;20044;-83
2021/12/23 05:06:15;;;;;;;0.10;0.10;;;0.10;99.90;;;;;;5055336;28;20045;-84
2021/12/23 05:08:41;;;;;;;0.00;0.00;;;0.10;99.90;;;;;;5072033;28;20399;-84
2021/12/23 05:11:07;;;;;;;0.00;0.00;;;0.10;99.90;;;;;;5072341;28;20052;-84
2021/12/23 05:13:32;;;;;;;0.45;0.45;;;0.10;99.90;;;;;;5072046;28;20052;-84
2021/12/23 05:15:58;;;;;;;0.00;0.00;;;0.70;99.90;;;;;;5071534;28;20041;-84
2021/12/23 05:18:24;;;;;;;1.45;1.05;;;0.10;99.90;;;;;;5071977;28;20063;-84
2021/12/23 05:20:51;;;;;;;0.68;0.68;;;0.10;99.90;;;;;;5055023;28;20162;-83
2021/12/23 05:23:17;;;;;;;0.00;0.00;;;0.10;99.90;;;;;;5054955;28;20044;-84
2021/12/23 05:25:43;;;;;;;0.22;0.22;;;0.10;99.90;;;;;;5074167;28;20040;-84
2021/12/23 05:28:09;;;;;;;0.00;0.00;;;0.20;99.90;;;;;;5058725;28;20104;-84
2021/12/23 05:30:34;;;;;;;0.00;0.00;;;0.20;99.90;;;;;;5075409;28;20097;-84
2021/12/23 05:33:00;;;;;;;0.00;0.00;;;0.20;99.90;;;;;;5058842;28;20091;-84
2021/12/23 05:35:26;;;;;;;0.00;0.00;;;0.30;99.90;;;;;;5075408;28;20049;-84
2021/12/23 05:37:53;;;;;;;0.00;0.00;;;0.20;99.90;;;;;;5058555;28;20040;-84
2021/12/23 05:40:21;;;;;;;0.17;0.17;;;0.20;99.90;;;;;;5075755;28;20045;-83
2021/12/23 05:42:46;;;;;;;1.13;0.60;;;0.20;99.90;;;;;;5058354;28;20074;-83
2021/12/23 05:45:16;;;;;;;0.08;0.08;;;0.20;99.90;;;;;;5059280;28;20052;-84
2021/12/23 05:47:42;;;;;;;0.10;0.10;;;0.20;99.90;;;;;;5076007;28;20045;-84
2021/12/23 05:50:10;;;;;;;0.00;0.00;;;0.20;99.90;;;;;;5059008;28;20087;-84
2021/12/23 05:52:36;;;;;;;0.00;0.00;;;0.30;99.90;;;;;;5058699;28;20542;-84
2021/12/23 05:55:04;;;;;;;0.20;0.20;;;0.30;99.90;;;;;;5075039;28;20091;-83
2021/12/23 05:57:30;;;;;;;0.38;0.38;;;0.30;99.90;;;;;;5075837;28;20037;-84
2021/12/23 05:59:57;;;;;;;1.75;0.55;;;0.30;99.90;;;;;;5058079;28;20435;-84
2021/12/23 06:02:22;;;;;;;0.75;0.63;;;0.30;99.90;;;;;;5058396;28;20091;-84
2021/12/23 06:04:48;;;;;;;0.25;0.13;;;0.30;99.90;;;;;;5058714;28;20083;-84
2021/12/23 06:07:14;;;;;;;1.13;1.02;;;0.40;99.90;;;;;;5075257;28;20040;-84
2021/12/23 06:09:39;;;;;;;0.15;0.15;;;0.40;99.90;;;;;;5058825;28;20127;-84
2021/12/23 06:12:05;;;;;;;0.60;0.60;;;0.50;99.90;;;;;;5058467;28;20140;-84
2021/12/23 06:14:31;;;;;;;0.17;0.17;;;0.40;99.90;;;;;;5058282;28;20151;-84
2021/12/23 06:16:57;;;;;;;1.67;0.80;;;0.40;99.90;;;;;;5058267;28;20507;-84
2021/12/23 06:19:23;;;;;;;0.30;0.28;;;0.40;99.90;;;;;;5058848;28;20043;-84
2021/12/23 06:21:49;;;;;;;0.10;0.08;;;0.40;99.90;;;;;;5058634;28;20133;-84
2021/12/23 06:24:14;;;;;;;0.10;0.05;;;0.40;99.90;;;;;;5075385;28;20084;-84
2021/12/23 06:26:40;;;;;;;1.83;0.57;;;0.40;99.90;;;;;;5058517;28;20139;-84
2021/12/23 06:29:06;;;;;;;5.60;2.03;;;0.40;99.90;;;;;;5058205;28;20044;-84
2021/12/23 06:31:32;;;;;;;1.00;1.00;;;0.40;99.90;;;;;;5057964;28;20076;-84
2021/12/23 06:33:57;;;;;;;1.77;1.10;;;0.40;99.90;;;;;;5074330;28;20063;-83
2021/12/23 06:36:23;;;;;;;1.52;0.73;;;0.40;99.90;;;;;;5058138;28;20045;-84
2021/12/23 06:38:49;;;;;;;0.52;0.52;;;0.30;99.90;;;;;;5074050;28;20044;-84
2021/12/23 06:41:17;;;;;;;1.00;0.63;;;0.40;99.90;;;;;;5073968;28;20045;-83
2021/12/23 06:43:43;;;;;;;0.28;0.28;;;0.30;99.90;;;;;;5074062;28;20052;-84
2021/12/23 06:46:09;;;;;;;0.10;0.10;;;0.40;99.90;;;;;;5057433;28;20087;-84
2021/12/23 06:48:35;;;;;;;0.10;0.10;;;0.40;99.90;;;;;;5074856;28;20048;-84
2021/12/23 06:51:01;;;;;;;0.47;0.47;;;0.50;99.90;;;;;;5074940;28;20072;-84
2021/12/23 06:53:28;;;;;;;0.38;0.38;;;0.40;99.90;;;;;;5057484;28;20102;-84
2021/12/23 06:55:55;;;;;;;0.30;0.30;;;0.40;99.90;;;;;;5071304;28;20063;-84
2021/12/23 06:58:25;;;;;;;0.22;0.22;;;0.40;99.90;;;;;;5068398;28;20138;-84
2021/12/23 07:00:52;;;;;;;0.00;0.00;;;0.40;99.90;;;;;;5075026;28;20095;-83
2021/12/23 07:03:18;;;;;;;0.15;0.15;;;0.40;99.90;;;;;;5057439;28;20055;-83
2021/12/23 07:05:44;;;;;;;1.45;1.23;;;0.40;99.90;;;;;;5074199;28;20048;-84
2021/12/23 07:08:25;;;;;;;0.08;0.08;;;0.40;99.90;;;;;;5074100;28;20041;-83
2021/12/23 07:10:51;;;;;;;1.90;1.02;;;0.40;99.90;;;;;;5074156;28;20388;-83
2021/12/23 07:13:17;;;;;;;0.57;0.40;;;0.40;99.90;;;;;;5073655;28;20040;-83
2021/12/23 07:15:43;;;;;;;0.10;0.10;;;0.40;99.90;;;;;;5057203;28;20113;-83
2021/12/23 07:18:09;;;;;;;0.65;0.60;;;0.40;99.90;;;;;;5073783;28;20376;-83
2021/12/23 07:20:34;;;;;;;0.65;0.65;;;0.40;99.90;;;;;;5073963;28;20051;-83
2021/12/23 07:23:02;;;;;;;1.60;1.13;;;0.30;99.90;;;;;;5057570;28;20106;-83
2021/12/23 07:25:28;;;;;;;0.10;0.10;;;0.40;99.90;;;;;;5073613;28;20048;-83
2021/12/23 07:27:53;;;;;;;0.40;0.40;;;0.40;99.90;;;;;;5057128;28;20498;-83
2021/12/23 07:30:20;;;;;;;0.05;0.05;;;0.40;99.90;;;;;;5072955;28;20055;-83
2021/12/23 07:32:48;;;;;;;0.25;0.25;;;0.40;99.90;;;;;;5072802;28;20084;-83
2021/12/23 07:35:14;;;;;;;0.20;0.20;;;0.50;99.90;;;;;;5072615;28;20056;-83
2021/12/23 07:37:41;;;;;;;0.35;0.35;;;0.50;99.90;;;;;;5073447;28;20131;-83
2021/12/23 07:40:07;;;;;;;0.30;0.30;;;0.50;99.90;;;;;;5056766;28;20270;-83
2021/12/23 07:42:34;;;;;;;1.63;0.55;;;0.50;99.90;;;;;;5072442;28;20052;-83
2021/12/23 07:45:05;;;;;;;0.65;0.65;;;0.50;99.90;;;;;;5072688;28;20138;-83
2021/12/23 07:47:32;;;;;;;0.75;0.75;;;0.50;99.90;;;;;;5073863;28;20451;-83
2021/12/23 07:49:58;;;;;;;0.47;0.47;;;0.50;99.90;;;;;;5055774;28;20492;-83
2021/12/23 07:52:24;;;;;;;1.30;0.88;;;0.50;99.90;;;;;;5056213;28;20059;-82
2021/12/23 07:54:50;;;;;;;0.20;0.20;;;0.60;99.90;;;;;;5056529;28;20119;-83
2021/12/23 07:57:16;;;;;;;5.53;0.80;;;0.60;99.90;;;;;;5056545;28;20084;-83
2021/12/23 07:59:42;;;;;;;1.27;1.17;;;0.90;99.90;;;;;;5073457;28;20463;-83
2021/12/23 08:02:08;;;;;;;1.38;1.17;;;0.50;99.90;;;;;;5057279;28;20048;-83
2021/12/23 08:04:35;;;;;;;0.80;0.80;;;0.60;99.90;;;;;;5056857;28;20048;-83
2021/12/23 08:07:03;;;;;;;2.72;2.38;;;0.60;99.90;;;;;;5073526;28;20044;-83
2021/12/23 08:09:28;;;;;;;1.65;1.02;;;0.60;99.90;;;;;;5056208;28;20045;-82
2021/12/23 08:11:54;;;;;;;2.65;1.60;;;0.60;99.90;;;;;;5052893;28;20059;-84
2021/12/23 08:14:20;;;;;;;5.57;1.92;;;0.60;99.90;;;;;;5056662;28;20053;-83
2021/12/23 08:16:46;;;;;;;0.73;0.73;;;0.60;99.90;;;;;;5051736;28;20051;-82
2021/12/23 08:19:12;;;;;;;3.40;1.55;;;0.60;99.90;;;;;;5046088;28;20122;-83
2021/12/23 08:21:38;;;;;;;0.47;0.47;;;0.60;99.90;;;;;;5046042;28;20541;-83
2021/12/23 08:24:04;;;;;;;0.50;0.50;;;0.60;99.90;;;;;;5062310;28;20424;-81
2021/12/23 08:26:38;;;;;;;4.28;1.23;;;0.60;99.90;;;;;;5044229;28;20045;-82
2021/12/23 08:29:04;;;;;;;1.65;0.63;;;0.60;99.90;;;;;;5041395;28;20044;-85
2021/12/23 08:31:30;;;;;;;0.25;0.25;;;0.60;99.90;;;;;;5052142;28;20442;-85
2021/12/23 08:33:56;;;;;;;0.22;0.22;;;0.60;99.90;;;;;;5044231;28;20127;-84
2021/12/23 08:36:21;;;;;;;4.28;0.63;;;0.60;99.90;;;;;;5044279;28;20416;-85
2021/12/23 08:38:47;;;;;;;1.23;1.13;;;0.60;99.90;;;;;;5061048;28;20059;-84
2021/12/23 08:41:13;;;;;;;1.10;1.00;;;0.60;99.90;;;;;;5063986;28;20105;-83
2021/12/23 08:43:38;;;;;;;3.30;0.95;;;0.60;99.90;;;;;;5059017;28;20132;-82
2021/12/23 08:46:04;;;;;;;0.25;0.25;;;0.60;99.90;;;;;;5045586;28;20052;-83
2021/12/23 08:48:30;;;;;;;0.60;0.60;;;0.60;99.90;;;;;;5061781;28;20037;-82
2021/12/23 08:50:56;;;;;;;1.08;0.70;;;0.60;99.90;;;;;;5060888;28;20067;-84
2021/12/23 08:53:22;;;;;;;5.40;0.90;;;0.80;99.90;;;;;;5056964;28;20052;-85
2021/12/23 08:55:48;;;;;;;1.60;1.50;;;0.60;99.90;;;;;;5058999;28;20056;-84
2021/12/23 08:58:13;;;;;;;0.05;0.05;;;0.60;99.90;;;;;;5043079;28;20153;-83
2021/12/23 09:00:41;;;;;;;0.90;0.50;;;0.60;99.90;;;;;;5064275;28;20507;-83
2021/12/23 09:03:09;;;;;;;0.38;0.38;;;0.60;99.90;;;;;;5064149;28;20090;-83
2021/12/23 09:05:37;;;;;;;1.52;0.70;;;0.60;99.90;;;;;;5053115;28;20061;-82
2021/12/23 09:08:05;;;;;;;2.67;1.40;;;0.60;99.90;;;;;;5058601;28;20049;-82
2021/12/23 09:10:31;;;;;;;1.95;1.25;;;0.60;99.90;;;;;;5038883;28;20045;-82
2021/12/23 09:12:57;;;;;;;1.58;1.48;;;0.60;99.90;;;;;;5056128;28;20053;-82
2021/12/23 09:15:23;;;;;;;1.02;1.00;;;0.60;99.90;;;;;;5055748;28;20488;-82
2021/12/23 09:17:49;;;;;;;1.80;0.80;;;0.60;99.90;;;;;;5055737;28;20045;-82
2021/12/23 09:20:18;;;;;;;1.10;0.90;;;0.70;99.90;;;;;;5055669;28;20041;-82
2021/12/23 09:22:44;;;;;;;0.65;0.45;;;0.70;99.90;;;;;;5039292;28;20448;-82
2021/12/23 09:25:18;;;;;;;0.38;0.38;;;0.70;99.90;;;;;;5055627;28;20055;-82
2021/12/23 09:33:04;;;;;;;0.10;0.10;;;0.70;99.90;;;;;;5055656;28;20041;-82
2021/12/23 09:35:32;;;;;;;0.55;0.52;;;0.70;99.90;;;;;;5058124;28;20093;-83
2021/12/23 09:37:59;;;;;;;0.63;0.63;;;0.70;99.90;;;;;;5065214;28;20045;-82
2021/12/23 09:40:29;;;;;;;0.65;0.65;;;0.80;99.90;;;;;;5059620;28;20045;-82
2021/12/23 09:43:01;;;;;;;2.05;0.82;;;0.80;99.90;;;;;;5039507;28;20466;-82
2021/12/23 09:45:27;;;;;;;2.10;0.50;;;0.80;99.90;;;;;;5039531;28;20052;-82
2021/12/23 09:47:53;;;;;;;3.20;0.55;;;0.80;99.90;;;;;;5038912;28;20049;-82
2021/12/23 09:50:22;;;;;;;3.20;0.55;;;0.80;99.90;;;;;;5055570;28;20429;-82
2021/12/23 09:52:51;;;;;;;0.95;0.75;;;0.80;99.90;;;;;;5055160;28;20107;-82
2021/12/23 09:55:22;;;;;;;1.33;1.33;;;0.80;99.90;;;;;;5055543;28;20061;-82
2021/12/23 09:57:49;;;;;;;0.35;0.35;;;0.80;99.90;;;;;;5056682;28;20049;-82
2021/12/23 10:00:17;;;;;;;1.13;1.05;;;0.80;99.90;;;;;;5039039;28;20153;-82
2021/12/23 10:02:43;;;;;;;0.50;0.50;;;0.80;99.90;;;;;;5055410;28;20052;-82
2021/12/23 10:05:13;;;;;;;0.68;0.68;;;0.90;99.90;;;;;;5038434;28;20123;-82
2021/12/23 10:07:40;;;;;;;1.17;0.88;;;0.90;99.90;;;;;;5046486;28;20443;-82
2021/12/23 10:10:15;;;;;;;0.75;0.75;;;0.90;99.90;;;;;;5062711;28;20045;-82
2021/12/23 10:32:20;;;;;;;1.92;1.17;;;1.10;99.90;;;;;;5059754;28;20097;-83
2021/12/23 10:37:21;;;;;;;0.10;0.10;;;1.10;99.90;;;;;;5054596;28;20047;-82
2021/12/23 10:40:07;;;;;;;0.32;0.32;;;1.10;99.90;;;;;;5037648;28;20469;-82
2021/12/23 10:42:33;;;;;;;6.00;1.08;;;1.20;99.90;;;;;;5037224;28;20053;-83
2021/12/23 10:45:03;;;;;;;1.40;1.30;;;1.10;99.90;;;;;;5064473;28;20041;-82
2021/12/23 10:47:45;;;;;;;1.05;0.77;;;1.20;99.90;;;;;;5058423;28;20048;-82
2021/12/23 10:50:30;;;;;;;0.10;0.10;;;1.20;99.90;;;;;;5057981;28;20507;-82
2021/12/23 10:53:10;;;;;;;1.60;0.93;;;1.20;99.90;;;;;;5074009;28;20084;-82
2021/12/23 10:58:22;;;;;;;2.35;1.25;;;1.20;99.90;;;;;;5074221;28;20403;-82
2021/12/23 11:00:54;;;;;;;0.28;0.28;;;1.20;99.90;;;;;;5057458;28;20048;-82
2021/12/23 11:03:34;;;;;;;0.30;0.30;;;1.10;99.90;;;;;;5057879;28;20041;-82
2021/12/23 11:06:18;;;;;;;0.90;0.32;;;1.10;99.90;;;;;;5057830;28;20064;-82
2021/12/23 11:37:04;;;;;;;0.10;0.10;;;1.30;99.90;;;;;;5073455;28;20502;-81
2021/12/23 11:42:16;;;;;;;1.42;1.27;;;1.30;99.90;;;;;;5073139;28;20470;-82
2021/12/23 11:44:31;;;;;;;0.55;0.43;;;1.30;99.90;;;;;;5072869;28;20059;-81
2021/12/23 11:47:09;;;;;;;1.17;1.08;;;1.30;99.90;;;;;;5073492;28;20059;-82
2021/12/23 11:49:38;;;;;;;4.47;1.13;;;1.40;99.90;;;;;;5057267;28;20064;-82
2021/12/23 11:52:04;;;;;;;1.40;1.30;;;1.40;99.90;;;;;;5057163;28;20511;-81
2021/12/23 11:54:36;;;;;;;0.38;0.38;;;1.40;99.90;;;;;;5056824;28;20412;-82
2021/12/23 11:57:18;;;;;;;0.85;0.85;;;1.40;99.90;;;;;;5056634;28;20055;-82
2021/12/23 12:00:04;;;;;;;3.15;2.08;;;1.40;99.90;;;;;;5073769;28;20044;-82
2021/12/23 12:02:32;;;;;;;;;;;1.40;99.90;;;;;;5055039;28;20059;-82
2021/12/23 12:05:00;;;;;;;0.15;0.15;;;1.40;99.90;;;;;;5053412;28;19921;-83
2021/12/23 12:07:27;;;;;;;0.98;0.93;;;1.40;99.90;;;;;;5053447;28;20090;-82
2021/12/23 12:09:54;;;;;;;0.75;0.75;;;1.40;99.90;;;;;;5052576;28;20052;-82
2021/12/23 12:12:20;;;;;;;0.32;0.32;;;1.40;99.90;;;;;;5036459;28;20048;-83
2021/12/23 12:14:47;;;;;;;1.65;0.40;;;1.40;99.90;;;;;;5047999;28;20182;-82
2021/12/23 12:17:32;;;;;;;3.88;1.70;;;1.40;99.90;;;;;;5062487;28;20392;-82
2021/12/23 12:20:23;;;;;;;0.20;0.20;;;1.40;99.90;;;;;;5044830;28;20049;-83
2021/12/23 12:23:02;;;;;;;1.10;0.73;;;1.40;99.90;;;;;;5051435;28;20041;-82
2021/12/23 12:25:28;;;;;;;2.30;1.02;;;1.40;99.90;;;;;;5035044;28;20049;-82
2021/12/23 12:27:57;;;;;;;2.83;1.30;;;1.40;99.90;;;;;;5034274;28;20053;-83
2021/12/23 12:30:41;;;;;;;9.88;0.82;;;1.40;99.90;;;;;;5052656;28;20388;-82
2021/12/23 12:33:23;;;;;;;0.32;0.32;;;1.40;99.90;;;;;;5052942;28;20045;-81
2021/12/23 12:36:05;;;;;;;0.43;0.43;;;1.40;99.90;;;;;;5055503;28;20370;-81
2021/12/23 12:38:35;;;;;;;0.90;0.52;;;1.40;99.90;;;;;;5040681;28;20385;-81
2021/12/23 12:41:23;;;;;;;0.50;0.50;;;1.50;99.90;;;;;;5041090;28;20443;-81
2021/12/23 12:44:00;;;;;;;2.75;0.85;;;1.50;99.90;;;;;;5040225;28;20037;-81
2021/12/23 12:46:44;;;;;;;0.40;0.35;;;1.50;99.90;;;;;;5040350;28;20136;-81
2021/12/23 12:49:29;;;;;;;0.03;0.03;;;1.50;99.90;;;;;;5040711;28;20396;-81
2021/12/23 12:52:17;;;;;;;2.53;1.08;;;1.50;99.90;;;;;;5040830;28;20074;-81
2021/12/23 12:54:54;;;;;;;1.58;1.45;;;1.50;99.90;;;;;;5057227;28;20431;-81
2021/12/23 12:57:31;;;;;;;0.73;0.73;;;1.50;99.90;;;;;;5056487;28;20123;-81
2021/12/23 13:00:00;;;;;;;0.95;0.95;;;1.50;99.90;;;;;;5057129;28;20092;-81
2021/12/23 13:02:31;;;;;;;1.02;0.98;;;1.80;99.90;;;;;;5040606;28;20404;-81
2021/12/23 13:04:59;;;;;;;0.13;0.13;;;1.60;99.90;;;;;;5040122;28;20067;-81
2021/12/23 13:07:27;;;;;;;0.90;0.90;;;1.60;99.90;;;;;;5039967;28;20477;-81
2021/12/23 13:09:59;;;;;;;0.10;0.10;;;1.50;99.90;;;;;;5056603;28;20037;-81
2021/12/23 13:12:29;;;;;;;2.25;0.28;;;1.50;99.90;;;;;;5040345;28;20400;-81
2021/12/23 13:15:16;;;;;;;3.53;1.65;;;1.50;99.90;;;;;;5040066;28;20044;-81
2021/12/23 13:17:55;;;;;;;0.20;0.20;;;1.60;99.90;;;;;;5056487;28;20103;-81
2021/12/23 13:20:51;;;;;;;0.30;0.30;;;1.60;99.90;;;;;;5056652;28;20404;-81
2021/12/23 13:23:22;;;;;;;4.70;1.50;;;1.60;99.90;;;;;;5018535;28;20100;-83
2021/12/23 13:25:55;;;;;;;2.05;1.00;;;1.50;99.90;;;;;;5019467;28;20052;-82
2021/12/23 13:28:34;;;;;;;0.40;0.32;;;1.60;99.90;;;;;;5018133;28;20493;-81
2021/12/23 13:31:01;;;;;;;0.63;0.63;;;1.60;99.90;;;;;;5018517;28;20053;-82
2021/12/23 13:33:26;;;;;;;0.47;0.47;;;1.60;99.90;;;;;;5018492;28;20167;-81
2021/12/23 13:35:52;;;;;;;1.20;0.82;;;1.60;99.90;;;;;;5001750;28;20478;-81
2021/12/23 13:38:41;;;;;;;0.47;0.47;;;1.60;99.90;;;;;;5019099;28;20083;-81
2021/12/23 13:41:14;;;;;;;2.13;0.50;;;1.60;99.90;;;;;;5018727;28;20061;-81
2021/12/23 13:43:40;;;;;;;1.40;1.30;;;1.50;99.90;;;;;;5001998;28;20162;-81
2021/12/23 13:46:07;;;;;;;0.63;0.10;;;1.60;99.90;;;;;;5018216;28;20050;-81
2021/12/23 13:48:47;;;;;;;0.35;0.22;;;1.60;99.90;;;;;;5018116;28;20393;-80
2021/12/23 13:51:13;;;;;;;4.30;1.13;;;1.60;99.90;;;;;;5018292;28;20126;-81
2021/12/23 13:53:39;;;;;;;0.20;0.20;;;1.60;99.90;;;;;;5017508;28;20520;-82
2021/12/23 13:56:13;;;;;;;0.57;0.57;;;1.60;99.90;;;;;;5001591;28;20092;-82
2021/12/23 13:58:39;;;;;;;0.10;0.10;;;1.70;99.90;;;;;;5003881;28;20136;-82
2021/12/23 14:01:05;;;;;;;1.20;0.57;;;1.70;99.90;;;;;;5055452;28;20052;-82
2021/12/23 14:03:31;;;;;;;0.57;0.47;;;1.70;99.90;;;;;;5055611;28;20048;-82
2021/12/23 14:05:57;;;;;;;0.43;0.43;;;1.70;99.90;;;;;;5055266;28;20053;-82